createdAt,value
2022-11-04T00:01:59.154Z,27.43
2022-11-04T00:04:30.339Z,26.70
2022-11-04T00:06:58.771Z,27.03
2022-11-04T00:09:28.526Z,26.87
2022-11-04T00:12:14.021Z,27.40
2022-11-04T00:14:42.284Z,26.07
2022-11-04T00:17:22.355Z,27.23
2022-11-04T00:20:11.415Z,26.43
2022-11-04T00:22:58.232Z,27.33
2022-11-04T00:25:43.901Z,26.97
2022-11-04T00:28:31.280Z,27.53
2022-11-04T00:31:22.187Z,27.50
2022-11-04T00:33:50.486Z,28.17
2022-11-04T00:36:19.937Z,28.50
2022-11-04T00:38:48.019Z,27.93
2022-11-04T00:41:28.412Z,27.83
2022-11-04T00:43:58.356Z,28.30
2022-11-04T00:46:26.710Z,27.77
2022-11-04T00:48:54.781Z,28.97
2022-11-04T00:51:24.408Z,29.67
2022-11-04T00:53:53.046Z,29.10
2022-11-04T00:56:21.197Z,29.27
2022-11-04T00:58:50.285Z,27.70
2022-11-04T01:01:19.916Z,29.03
2022-11-04T01:03:50.225Z,28.13
2022-11-04T01:06:18.771Z,28.50
2022-11-04T01:08:48.756Z,28.60
2022-11-04T01:11:17.079Z,28.40
2022-11-04T01:13:45.173Z,28.30
2022-11-04T01:16:13.928Z,29.07
2022-11-04T01:18:42.505Z,27.20
2022-11-04T01:21:13.173Z,27.60
2022-11-04T01:23:42.973Z,28.00
2022-11-04T01:26:15.603Z,28.17
2022-11-04T01:28:43.798Z,29.00
2022-11-04T01:31:14.104Z,28.90
2022-11-04T01:33:42.703Z,27.33
2022-11-04T01:36:11.903Z,27.30
2022-11-04T01:38:40.147Z,27.67
2022-11-04T01:41:09.271Z,27.87
2022-11-04T01:43:52.084Z,28.93
2022-11-04T01:46:33.057Z,27.80
2022-11-04T01:49:05.415Z,26.97
2022-11-04T01:51:35.904Z,27.53
2022-11-04T01:54:06.043Z,28.20
2022-11-04T01:56:35.230Z,27.37
2022-11-04T01:59:10.513Z,27.70
2022-11-04T02:01:38.846Z,28.87
2022-11-04T02:04:21.014Z,28.43
2022-11-04T02:06:50.205Z,28.80
2022-11-04T02:09:19.639Z,28.47
2022-11-04T02:12:05.041Z,29.03
2022-11-04T02:14:37.114Z,29.17
2022-11-04T02:17:16.042Z,28.57
2022-11-04T02:20:07.962Z,29.30
2022-11-04T02:22:56.974Z,28.17
2022-11-04T02:25:40.112Z,29.33
2022-11-04T02:28:34.457Z,30.10
2022-11-04T02:31:13.946Z,29.17
2022-11-04T02:33:48.948Z,29.80
2022-11-04T02:36:28.671Z,29.53
2022-11-04T02:39:01.837Z,28.20
2022-11-04T02:41:39.283Z,30.10
2022-11-04T02:44:17.745Z,29.20
2022-11-04T02:46:52.848Z,29.70
2022-11-04T02:49:26.872Z,29.40
2022-11-04T02:51:59.949Z,29.50
2022-11-04T02:54:34.515Z,29.00
2022-11-04T02:57:04.893Z,29.50
2022-11-04T02:59:36.449Z,30.53
2022-11-04T03:02:09.303Z,28.63
2022-11-04T03:04:42.645Z,29.40
2022-11-04T03:07:16.492Z,29.97
2022-11-04T03:09:50.930Z,30.50
2022-11-04T03:12:24.597Z,31.47
2022-11-04T03:14:57.401Z,31.70
2022-11-04T03:17:35.036Z,31.07
2022-11-04T03:20:07.116Z,32.30
2022-11-04T03:22:37.602Z,30.80
2022-11-04T03:25:08.408Z,31.03
2022-11-04T03:27:44.901Z,30.53
2022-11-04T03:32:57.735Z,31.57
2022-11-04T03:35:26.946Z,30.73
2022-11-04T03:37:55.211Z,31.43
2022-11-04T03:40:23.778Z,30.93
2022-11-04T03:42:58.668Z,30.30
2022-11-04T03:45:27.521Z,30.00
2022-11-04T03:47:57.273Z,30.70
2022-11-04T03:50:29.724Z,30.40
2022-11-04T03:52:59.557Z,29.97
2022-11-04T03:55:37.886Z,29.33
2022-11-04T03:58:10.695Z,30.53
2022-11-04T04:00:48.148Z,30.47
2022-11-04T04:03:22.623Z,30.60
2022-11-04T04:05:55.043Z,30.27
2022-11-04T04:08:34.958Z,31.50
2022-11-04T04:11:09.821Z,31.00
2022-11-04T04:13:43.783Z,30.70
2022-11-04T04:16:16.764Z,31.10
2022-11-04T04:18:54.184Z,31.87
2022-11-04T04:21:31.035Z,31.40
2022-11-04T04:24:21.480Z,32.20
2022-11-04T04:27:10.262Z,34.00
2022-11-04T04:29:39.232Z,33.43
2022-11-04T04:32:08.444Z,32.23
2022-11-04T04:34:38.536Z,33.70
2022-11-04T04:37:09.105Z,33.40
2022-11-04T04:39:59.880Z,33.30
2022-11-04T04:42:50.704Z,33.57
2022-11-04T04:45:23.370Z,34.57
2022-11-04T04:47:52.581Z,33.53
2022-11-04T04:50:23.435Z,34.10
2022-11-04T04:52:54.631Z,35.03
2022-11-04T04:55:22.562Z,34.63
2022-11-04T04:57:51.003Z,36.07
2022-11-04T05:00:22.024Z,35.67
2022-11-04T05:02:50.290Z,35.80
2022-11-04T05:05:19.269Z,36.67
2022-11-04T05:07:49.228Z,34.90
2022-11-04T05:10:18.284Z,35.37
2022-11-04T05:13:03.948Z,35.63
2022-11-04T05:15:32.771Z,35.33
2022-11-04T05:18:02.200Z,36.13
2022-11-04T05:20:30.509Z,35.97
2022-11-04T05:23:00.155Z,35.67
2022-11-04T05:25:28.140Z,34.57
2022-11-04T05:27:56.086Z,34.53
2022-11-04T05:30:24.285Z,34.27
2022-11-04T05:32:52.275Z,34.17
2022-11-04T05:35:20.296Z,33.73
2022-11-04T05:37:48.310Z,34.07
2022-11-04T05:40:17.837Z,34.50
2022-11-04T05:42:45.959Z,34.00
2022-11-04T05:45:13.985Z,35.00
2022-11-04T05:47:42.009Z,33.67
2022-11-04T05:50:10.591Z,33.30
2022-11-04T05:52:38.536Z,33.00
2022-11-04T05:55:07.322Z,34.87
2022-11-04T05:57:38.316Z,33.00
2022-11-04T06:00:07.318Z,31.70
2022-11-04T06:02:35.374Z,32.70
2022-11-04T06:05:03.491Z,32.77
2022-11-04T06:07:31.417Z,32.07
2022-11-04T06:10:00.402Z,32.20
2022-11-04T06:12:28.390Z,32.27
2022-11-04T06:14:57.782Z,31.00
2022-11-04T06:17:25.798Z,31.60
2022-11-04T06:19:53.926Z,30.77
2022-11-04T06:22:22.026Z,31.27
2022-11-04T06:24:50.128Z,30.90
2022-11-04T06:27:18.110Z,30.23
2022-11-04T06:29:47.228Z,30.50
2022-11-04T06:32:18.633Z,29.03
2022-11-04T06:34:46.901Z,29.73
2022-11-04T06:37:14.904Z,28.63
2022-11-04T06:39:42.860Z,29.40
2022-11-04T06:42:10.947Z,28.73
2022-11-04T06:44:38.936Z,29.33
2022-11-04T06:47:06.949Z,29.20
2022-11-04T06:49:36.410Z,28.40
2022-11-04T06:52:04.517Z,26.87
2022-11-04T06:54:32.557Z,27.00
2022-11-04T06:57:00.596Z,26.33
2022-11-04T06:59:28.594Z,25.67
2022-11-04T07:01:56.799Z,26.93
2022-11-04T07:04:24.985Z,27.43
2022-11-04T07:06:54.401Z,26.80
2022-11-04T07:09:22.391Z,26.33
2022-11-04T07:11:50.396Z,26.20
2022-11-04T07:14:18.385Z,25.53
2022-11-04T07:16:46.461Z,25.40
2022-11-04T07:19:15.180Z,26.47
2022-11-04T07:21:43.125Z,32.43
2022-11-04T07:24:12.548Z,33.40
2022-11-04T07:26:42.515Z,26.63
2022-11-04T07:29:11.249Z,22.33
2022-11-04T07:31:39.460Z,22.13
2022-11-04T07:34:07.483Z,22.83
2022-11-04T07:36:35.442Z,21.47
2022-11-04T07:39:03.387Z,20.23
2022-11-04T07:41:32.707Z,22.13
2022-11-04T07:44:02.079Z,21.30
2022-11-04T07:46:30.045Z,21.57
2022-11-04T07:48:58.847Z,20.13
2022-11-04T07:51:28.211Z,20.43
2022-11-04T07:53:56.756Z,18.90
2022-11-04T07:56:25.111Z,20.07
2022-11-04T07:58:54.711Z,19.70
2022-11-04T08:01:25.006Z,17.73
2022-11-04T08:03:53.858Z,18.63
2022-11-04T08:06:22.618Z,18.53
2022-11-04T08:08:54.118Z,19.47
2022-11-04T08:11:25.389Z,17.70
2022-11-04T08:13:56.158Z,17.53
2022-11-04T08:16:31.394Z,16.60
2022-11-04T08:19:02.775Z,17.53
2022-11-04T08:21:32.330Z,16.53
2022-11-04T08:24:00.434Z,16.07
2022-11-04T08:26:28.452Z,15.60
2022-11-04T08:28:58.051Z,14.20
2022-11-04T08:31:29.220Z,14.17
2022-11-04T08:33:58.305Z,13.87
2022-11-04T08:36:28.417Z,13.83
2022-11-04T08:38:57.301Z,19.23
2022-11-04T08:41:28.108Z,13.83
2022-11-04T08:44:01.076Z,15.53
2022-11-04T08:46:30.259Z,17.00
2022-11-04T08:48:58.316Z,15.73
2022-11-04T08:51:28.358Z,18.10
2022-11-04T08:53:56.505Z,15.77
2022-11-04T08:56:28.025Z,14.07
2022-11-04T08:58:59.303Z,13.53
2022-11-04T09:01:32.785Z,11.87
2022-11-04T09:04:04.026Z,14.43
2022-11-04T09:06:36.347Z,19.77
2022-11-04T09:09:05.605Z,15.63
2022-11-04T09:11:35.880Z,15.00
2022-11-04T09:14:06.054Z,13.47
2022-11-04T09:16:35.580Z,13.90
2022-11-04T09:19:03.857Z,13.63
2022-11-04T09:21:32.349Z,17.50
2022-11-04T09:24:00.529Z,14.73
2022-11-04T09:26:28.658Z,14.23
2022-11-04T09:28:58.051Z,15.83
2022-11-04T09:31:29.944Z,16.13
2022-11-04T09:33:58.294Z,16.63
2022-11-04T09:36:26.750Z,18.43
2022-11-04T09:38:54.847Z,14.63
2022-11-04T09:41:48.421Z,14.33
2022-11-04T09:44:24.063Z,13.87
2022-11-04T09:46:57.867Z,10.20
2022-11-04T09:49:28.570Z,17.23
2022-11-04T09:51:59.113Z,13.70
2022-11-04T09:54:31.353Z,11.70
2022-11-04T09:57:02.812Z,17.17
2022-11-04T09:59:34.057Z,11.95
2022-11-04T10:02:22.722Z,15.63
2022-11-04T10:05:02.499Z,18.02
2022-11-04T10:07:59.623Z,9.95
2022-11-04T10:10:39.498Z,17.90
2022-11-04T10:13:18.961Z,14.13
2022-11-04T10:16:12.723Z,15.23
2022-11-04T10:18:56.826Z,14.55
2022-11-04T10:21:37.151Z,12.90
2022-11-04T10:24:18.997Z,9.48
2022-11-04T10:26:50.186Z,9.93
2022-11-04T10:29:24.884Z,12.85
2022-11-04T10:31:54.666Z,11.65
2022-11-04T10:34:33.882Z,10.43
2022-11-04T10:37:02.127Z,11.13
2022-11-04T10:39:33.387Z,13.43
2022-11-04T10:42:03.977Z,18.75
2022-11-04T10:44:35.086Z,16.05
2022-11-04T10:47:15.181Z,14.98
2022-11-04T10:50:26.445Z,17.77
2022-11-04T10:52:44.226Z,16.42
2022-11-04T10:55:24.638Z,16.10
2022-11-04T10:57:56.471Z,14.35
2022-11-04T11:00:35.444Z,11.18
2022-11-04T11:03:22.821Z,10.18
2022-11-04T11:05:52.759Z,13.73
2022-11-04T11:08:31.193Z,13.73
2022-11-04T11:10:59.273Z,13.93
2022-11-04T11:13:29.005Z,20.05
2022-11-04T11:16:07.836Z,14.82
2022-11-04T11:18:37.300Z,14.55
2022-11-04T11:21:10.023Z,13.75
2022-11-04T11:23:44.200Z,16.42
2022-11-04T11:26:15.496Z,17.25
2022-11-04T11:28:54.507Z,16.45
2022-11-04T11:31:26.879Z,16.13
2022-11-04T11:33:58.669Z,20.25
2022-11-04T11:36:31.169Z,12.75
2022-11-04T11:39:06.019Z,19.55
2022-11-04T11:41:39.672Z,20.65
2022-11-04T11:44:21.361Z,19.58
2022-11-04T11:46:55.562Z,12.63
2022-11-04T11:49:30.448Z,13.70
2022-11-04T11:52:28.568Z,8.75
2022-11-04T11:55:03.041Z,12.07
2022-11-04T11:57:41.136Z,8.48
2022-11-04T12:03:14.100Z,8.10
2022-11-04T12:12:03.618Z,7.70
2022-11-04T12:14:48.645Z,7.82
2022-11-04T12:17:29.944Z,8.13
2022-11-04T12:20:20.338Z,7.68
2022-11-04T12:22:56.378Z,7.90
2022-11-04T12:25:32.935Z,9.35
2022-11-04T12:28:10.616Z,8.77
2022-11-04T12:30:50.090Z,11.68
2022-11-04T12:33:33.625Z,8.77
2022-11-04T12:36:26.422Z,8.05
2022-11-04T12:39:10.462Z,10.43
2022-11-04T12:42:14.735Z,10.60
2022-11-04T12:44:42.352Z,9.23
2022-11-04T12:47:23.722Z,14.18
2022-11-04T12:50:13.444Z,10.05
2022-11-04T12:53:14.278Z,11.50
2022-11-04T12:55:51.051Z,9.95
2022-11-04T12:58:40.004Z,11.63
2022-11-04T13:01:15.470Z,13.55
2022-11-04T13:03:52.316Z,10.55
2022-11-04T13:06:25.451Z,9.07
2022-11-04T13:08:58.437Z,12.00
2022-11-04T13:11:32.161Z,9.70
2022-11-04T13:14:12.889Z,9.85
2022-11-04T13:16:44.382Z,9.35
2022-11-04T13:19:23.822Z,10.68
2022-11-04T13:21:52.718Z,10.65
2022-11-04T13:24:30.396Z,9.80
2022-11-04T13:27:01.760Z,11.40
2022-11-04T13:29:34.541Z,9.35
2022-11-04T13:32:09.904Z,12.88
2022-11-04T13:34:49.086Z,9.70
2022-11-04T13:37:23.151Z,9.90
2022-11-04T13:39:56.517Z,13.85
2022-11-04T13:42:54.052Z,12.05
2022-11-04T13:45:23.765Z,14.27
2022-11-04T13:47:56.169Z,13.85
2022-11-04T13:50:35.499Z,9.88
2022-11-04T13:53:04.346Z,14.93
2022-11-04T13:55:32.548Z,9.63
2022-11-04T13:58:02.623Z,11.85
2022-11-04T14:00:32.492Z,10.10
2022-11-04T14:03:02.284Z,14.07
2022-11-04T14:06:02.161Z,15.50
2022-11-04T14:08:30.894Z,10.52
2022-11-04T14:11:05.826Z,12.77
2022-11-04T14:13:47.780Z,15.40
2022-11-04T14:16:40.464Z,16.60
2022-11-04T14:19:55.990Z,14.05
2022-11-04T14:22:30.516Z,18.17
2022-11-04T14:24:59.954Z,16.00
2022-11-04T14:27:34.488Z,19.65
2022-11-04T14:30:02.715Z,23.50
2022-11-04T14:32:40.030Z,20.95
2022-11-04T14:35:09.540Z,22.38
2022-11-04T14:37:38.395Z,17.55
2022-11-04T14:40:09.169Z,27.45
2022-11-04T14:42:47.092Z,15.27
2022-11-04T14:45:21.199Z,22.92
2022-11-04T14:47:57.869Z,23.42
2022-11-04T14:50:28.090Z,19.95
2022-11-04T14:52:59.346Z,19.95
2022-11-04T14:55:29.584Z,14.15
2022-11-04T14:58:01.358Z,22.10
2022-11-04T15:00:34.639Z,13.30
2022-11-04T15:06:13.529Z,24.08
2022-11-04T15:08:45.931Z,15.52
2022-11-04T15:11:17.675Z,16.17
2022-11-04T15:13:49.768Z,14.07
2022-11-04T15:16:21.024Z,13.02
2022-11-04T15:18:52.547Z,14.93
2022-11-04T15:21:20.686Z,15.23
2022-11-04T15:23:50.327Z,14.17
2022-11-04T15:26:29.387Z,13.65
2022-11-04T15:29:00.281Z,16.67
2022-11-04T15:31:29.734Z,14.23
2022-11-04T15:34:01.490Z,15.27
2022-11-04T15:36:32.921Z,18.87
2022-11-04T15:39:04.580Z,17.43
2022-11-04T15:41:51.240Z,16.80
2022-11-04T15:44:22.262Z,16.00
2022-11-04T15:46:52.106Z,16.27
2022-11-04T15:49:26.880Z,16.17
2022-11-04T15:51:59.558Z,16.00
2022-11-04T15:54:30.614Z,18.10
2022-11-04T15:57:01.744Z,18.57
2022-11-04T15:59:32.845Z,22.53
2022-11-04T16:02:01.935Z,17.77
2022-11-04T16:04:31.947Z,23.23
2022-11-04T16:07:21.881Z,20.13
2022-11-04T16:09:52.465Z,22.20
2022-11-04T16:12:28.117Z,29.33
2022-11-04T16:14:56.953Z,37.40
2022-11-04T16:17:26.043Z,28.77
2022-11-04T16:19:58.961Z,25.77
2022-11-04T16:22:31.762Z,22.87
2022-11-04T16:25:01.764Z,25.43
2022-11-04T16:27:33.243Z,29.33
2022-11-04T16:30:10.622Z,28.07
2022-11-04T16:32:43.877Z,35.10
2022-11-04T16:35:21.880Z,32.17
2022-11-04T16:37:50.820Z,33.30
2022-11-04T16:40:20.515Z,40.20
2022-11-04T16:42:50.558Z,32.57
2022-11-04T16:45:25.180Z,30.97
2022-11-04T16:47:53.589Z,36.30
2022-11-04T16:50:24.536Z,32.00
2022-11-04T16:52:53.150Z,34.93
2022-11-04T16:55:22.819Z,35.37
2022-11-04T16:57:55.902Z,32.10
2022-11-04T17:00:26.280Z,33.80
2022-11-04T17:02:54.961Z,34.03
2022-11-04T17:05:24.436Z,34.13
2022-11-04T17:07:55.549Z,35.83
2022-11-04T17:10:28.422Z,34.87
2022-11-04T17:12:56.712Z,35.03
2022-11-04T17:15:24.689Z,33.63
2022-11-04T17:17:52.699Z,32.60
2022-11-04T17:20:20.798Z,34.10
2022-11-04T17:22:50.952Z,32.63
2022-11-04T17:25:20.716Z,31.17
2022-11-04T17:27:49.032Z,32.70
2022-11-04T17:30:17.955Z,31.47
2022-11-04T17:32:47.204Z,32.83
2022-11-04T17:35:16.673Z,32.40
2022-11-04T17:37:45.388Z,29.80
2022-11-04T17:40:16.785Z,29.30
2022-11-04T17:43:14.242Z,30.20
2022-11-04T17:45:43.580Z,30.97
2022-11-04T17:48:14.255Z,30.17
2022-11-04T17:50:42.639Z,29.83
2022-11-04T17:53:11.320Z,28.50
2022-11-04T17:55:41.637Z,27.77
2022-11-04T17:58:09.947Z,29.27
2022-11-04T18:00:37.996Z,30.60
2022-11-04T18:03:06.953Z,29.83
2022-11-04T18:05:35.185Z,30.00
2022-11-04T18:08:03.179Z,29.90
2022-11-04T18:10:31.161Z,29.57
2022-11-04T18:13:00.523Z,29.63
2022-11-04T18:15:28.478Z,29.37
2022-11-04T18:17:57.317Z,31.33
2022-11-04T18:20:25.371Z,30.07
2022-11-04T18:22:53.864Z,31.00
2022-11-04T18:25:21.854Z,33.43
2022-11-04T18:27:49.829Z,34.67
2022-11-04T18:30:19.293Z,34.57
2022-11-04T18:32:47.351Z,34.43
2022-11-04T18:35:15.403Z,35.60
2022-11-04T18:37:47.410Z,35.37
2022-11-04T18:40:16.131Z,35.67
2022-11-04T18:42:44.294Z,43.33
2022-11-04T18:45:12.786Z,37.10
2022-11-04T18:47:42.233Z,38.33
2022-11-04T18:50:11.118Z,38.63
2022-11-04T18:52:39.099Z,35.93
2022-11-04T18:55:08.198Z,36.13
2022-11-04T18:57:36.285Z,38.20
2022-11-04T19:00:05.273Z,39.27
2022-11-04T19:02:33.330Z,38.93
2022-11-04T19:05:02.801Z,39.83
2022-11-04T19:07:30.903Z,41.13
2022-11-04T19:09:58.965Z,44.40
2022-11-04T19:12:44.304Z,45.33
2022-11-04T19:15:12.399Z,44.87
2022-11-04T19:17:40.428Z,44.33
2022-11-04T19:20:12.526Z,44.33
2022-11-04T19:22:41.339Z,45.10
2022-11-04T19:25:09.832Z,46.97
2022-11-04T19:27:37.998Z,45.93
2022-11-04T19:30:06.889Z,46.33
2022-11-04T19:32:35.091Z,47.63
2022-11-04T19:35:03.185Z,50.47
2022-11-04T19:37:33.554Z,50.67
2022-11-04T19:40:01.612Z,49.93
2022-11-04T19:42:46.924Z,52.37
2022-11-04T19:45:15.028Z,52.43
2022-11-04T19:47:43.027Z,50.83
2022-11-04T19:50:12.705Z,55.73
2022-11-04T19:52:42.914Z,52.67
2022-11-04T19:55:11.458Z,52.27
2022-11-04T19:57:39.816Z,50.07
2022-11-04T20:00:08.991Z,51.30
2022-11-04T20:02:43.205Z,50.20
2022-11-04T20:05:11.235Z,52.53
2022-11-04T20:07:39.822Z,51.17
2022-11-04T20:10:10.542Z,52.90
2022-11-04T20:12:56.617Z,53.33
2022-11-04T20:15:26.061Z,53.90
2022-11-04T20:17:54.125Z,53.27
2022-11-04T20:20:22.079Z,54.00
2022-11-04T20:22:50.175Z,55.17
2022-11-04T20:25:19.709Z,55.63
2022-11-04T20:27:47.810Z,56.43
2022-11-04T20:30:16.028Z,58.37
2022-11-04T20:32:48.001Z,57.63
2022-11-04T20:35:16.928Z,58.70
2022-11-04T20:37:44.883Z,60.67
2022-11-04T20:40:13.880Z,59.93
2022-11-04T20:42:47.858Z,61.70
2022-11-04T20:45:16.785Z,60.47
2022-11-04T20:47:44.754Z,60.33
2022-11-04T20:50:13.232Z,61.57
2022-11-04T20:52:41.254Z,60.53
2022-11-04T20:55:10.772Z,62.30
2022-11-04T20:57:38.730Z,60.10
2022-11-04T21:00:09.669Z,61.13
2022-11-04T21:02:37.812Z,60.30
2022-11-04T21:05:06.480Z,60.20
2022-11-04T21:07:36.487Z,60.00
2022-11-04T21:10:10.433Z,59.83
2022-11-04T21:12:40.694Z,59.90
2022-11-04T21:15:31.202Z,59.03
2022-11-04T21:17:59.286Z,60.17
2022-11-04T21:20:27.525Z,60.17
2022-11-04T21:22:55.515Z,59.90
2022-11-04T21:25:23.890Z,59.93
2022-11-04T21:27:52.392Z,59.10
2022-11-04T21:30:21.985Z,59.03
2022-11-04T21:32:49.904Z,60.60
2022-11-04T21:35:18.166Z,60.17
2022-11-04T21:37:46.097Z,62.27
2022-11-04T21:40:14.183Z,62.70
2022-11-04T21:42:42.154Z,66.60
2022-11-04T21:45:10.852Z,65.00
2022-11-04T21:47:40.252Z,65.00
2022-11-04T21:50:13.818Z,66.07
2022-11-04T21:52:44.916Z,65.70
2022-11-04T21:55:13.250Z,65.97
2022-11-04T21:57:41.352Z,67.97
2022-11-04T22:00:11.522Z,67.83
2022-11-04T22:02:43.675Z,71.33
2022-11-04T22:05:12.600Z,66.27
2022-11-04T22:07:58.620Z,68.47
2022-11-04T22:10:27.882Z,64.70
2022-11-04T22:12:56.702Z,65.00
2022-11-04T22:15:42.202Z,65.37
2022-11-04T22:18:11.669Z,65.67
2022-11-04T22:20:39.824Z,66.10
2022-11-04T22:23:08.068Z,63.27
2022-11-04T22:25:36.224Z,67.50
2022-11-04T22:28:04.320Z,64.40
2022-11-04T22:30:32.276Z,65.50
2022-11-04T22:33:00.688Z,67.73
2022-11-04T22:35:30.639Z,70.00
2022-11-04T22:37:58.752Z,70.83
2022-11-04T22:40:26.947Z,72.03
2022-11-04T22:42:54.954Z,68.03
2022-11-04T22:45:22.945Z,69.07
2022-11-04T22:47:51.219Z,69.97
2022-11-04T22:50:19.430Z,70.83
2022-11-04T22:52:48.845Z,72.20
2022-11-04T22:55:17.994Z,71.17
2022-11-04T22:57:46.202Z,71.03
2022-11-04T23:00:15.477Z,71.37
2022-11-04T23:02:43.596Z,69.87
2022-11-04T23:05:11.746Z,68.57
2022-11-04T23:07:39.964Z,68.27
2022-11-04T23:10:27.718Z,69.43
2022-11-04T23:13:13.601Z,67.67
2022-11-04T23:15:59.597Z,67.83
2022-11-04T23:18:42.933Z,66.87
2022-11-04T23:21:29.662Z,74.07
2022-11-04T23:24:15.254Z,68.17
2022-11-04T23:26:46.307Z,70.70
2022-11-04T23:29:32.593Z,71.43
2022-11-04T23:32:00.858Z,70.13
2022-11-04T23:34:46.134Z,68.83
2022-11-04T23:37:14.745Z,70.73
2022-11-04T23:39:45.046Z,69.90
2022-11-04T23:42:19.528Z,72.47
2022-11-04T23:45:07.541Z,73.73
2022-11-04T23:47:55.445Z,72.23
2022-11-04T23:50:41.953Z,71.53
2022-11-04T23:53:30.473Z,72.50
2022-11-04T23:56:16.044Z,72.40
2022-11-04T23:59:02.876Z,73.27
